Terminal Aerodrome Forecast
Issued by NWS Charleston, SC

Home | Current Version | Previous Version | Text Only | Print | Product List | Glossary On
Versions: 1 2 3 4 5 6 7 8 9 10 11 12 13 14 15 16
000
FTUS42 KCHS 210538
TAFCHS
TAF
KCHS 210538Z 2106/2206 04004KT P6SM FEW040 SCT200
     FM211400 06007KT P6SM BKN050 OVC150
     FM211900 09006KT P6SM VCSH SCT020 OVC040
      TEMPO 2120/2123 5SM -RA BR OVC030
     FM220300 03003KT P6SM SCT010 OVC030=

USA.gov is the U.S. government's official web portal to all federal, state and local government web resources and services.